• Join FlightAware (Why Join?)
  • Login
  • US Flag 
12:22PM EDT


 

Airport Tracker/Info


-or-


 

Live Flight TrackerFlight Track Log ✈ UAL5908 ✈ 29-Jul-2013 ✈ KDIK - KDEN

Flight Track Log - Related Links

Times and Time Zones

All times are in EDT time to prevent confusion due to time zone crossing. See the UAL5908 flight status page for this flight to view local times or setup timezone preferences in your user account.

Time Position Orientation Groundspeed Altitude Reporting Facility
EDT Latitude Longitude Course Direction KTS MPH feet Rate Location/Type
09:39AM 46.7300 -102.7864 132° Southeast 198 228 5,500  Level Minneapolis Center
09:40AM 46.6689 -102.7894 182° South 219 252 8,300 2,700 Climbing Minneapolis Center
09:41AM 46.6047 -102.7836 176° South 225 259 11,100 2,640 Climbing Minneapolis Center
09:42AM 46.5378 -102.7714 173° South 235 270 13,800 2,400 Climbing Minneapolis Center
09:43AM 45.7680 -103.1088 184° South  Level Estimated
09:43AM 46.4689 -102.7561 171° South 246 283 16,100  Level Minneapolis Center
09:44AM 45.6980 -102.9965 132° Southeast  Level FlightAware Approximate
09:44AM 46.3792 -102.7353 171° South 265 305 18,500  Level Minneapolis Center
09:45AM 46.2964 -102.7208 173° South 286 329 20,300 1,380 Climbing Minneapolis Center
09:46AM 46.2089 -102.6978 170° South 310 357 21,700 960 Climbing Minneapolis Center
09:47AM 46.0808 -102.7164 186° South 355 409 22,500 780 Climbing Minneapolis Center
09:48AM 45.9839 -102.7342 187° South 377 434 23,400 960 Climbing Minneapolis Center
09:49AM 45.8767 -102.7558 188° South 387 445 24,500 1,200 Climbing Minneapolis Center
09:50AM 45.7458 -102.7831 188° South 393 452 25,900 1,080 Climbing Minneapolis Center
09:51AM 45.6567 -102.7981 187° South 399 459 26,800 1,080 Climbing Minneapolis Center
09:52AM 45.5128 -102.8264 188° South 404 465 28,200 1,200 Climbing Minneapolis Center
09:53AM 45.4022 -102.8486 188° South 403 464 29,300 960 Climbing Minneapolis Center
09:55AM 45.2928 -102.8700 188° South 400 460 30,500 1,080 Climbing Minneapolis Center
09:56AM 45.1583 -102.8947 187° South 404 465 31,800 1,140 Climbing Minneapolis Center
09:57AM 45.0469 -102.9158 188° South 406 467 32,900 1,020 Climbing Minneapolis Center
09:58AM 44.9347 -102.9386 188° South 407 468 34,000 960 Climbing Minneapolis Center
09:59AM 44.8022 -102.9619 187° South 402 463 35,000 480 Climbing Minneapolis Center
10:00AM 44.6881 -102.9844 188° South 409 471 35,000  Level Minneapolis Center
10:01AM 44.5750 -103.0044 187° South 411 473 35,000  Level Minneapolis Center
10:02AM 44.4622 -103.0258 188° South 410 472 35,000  Level Minneapolis Center
10:03AM 44.3503 -103.0464 187° South 407 468 35,000  Level Minneapolis Center
10:04AM 44.2372 -103.0672 188° South 410 472 35,000  Level Minneapolis Center
10:05AM 44.0947 -103.0936 188° South 409 471 35,000  Level Denver Center
10:06AM 43.9692 -103.1158 187° South 407 468 35,000  Level Denver Center
10:07AM 43.8611 -103.1361 188° South 408 470 35,000  Level Denver Center
10:08AM 43.7517 -103.1550 187° South 411 473 35,000  Level Denver Center
10:09AM 43.6244 -103.1781 187° South 412 474 35,000  Level Denver Center
10:10AM 43.5150 -103.1978 187° South 413 475 35,000  Level Denver Center
10:11AM 43.4244 -103.2144 188° South 412 474 35,000  Level Denver Center
10:12AM 43.2789 -103.2414 188° South 412 474 35,000  Level Denver Center
10:13AM 43.1506 -103.2631 187° South 414 476 35,000  Level Denver Center
10:14AM 43.0428 -103.2817 187° South 409 471 35,000  Level Denver Center
10:16AM 42.9328 -103.3017 188° South 413 475 35,000  Level Denver Center
10:17AM 42.8053 -103.3228 187° South 412 474 35,000  Level Denver Center
10:18AM 42.6961 -103.3422 187° South 413 475 35,000  Level Denver Center
10:19AM 42.5681 -103.3644 187° South 413 475 35,000  Level Denver Center
10:20AM 42.4578 -103.3844 188° South 414 476 35,000  Level Denver Center
10:21AM 42.3481 -103.4028 187° South 414 476 35,000  Level Denver Center
10:22AM 42.2192 -103.4253 187° South 417 480 35,000  Level Denver Center
10:23AM 42.1061 -103.4450 187° South 424 488 35,000  Level Denver Center
10:24AM 41.9697 -103.4681 187° South 438 504 35,000  Level Denver Center
10:25AM 41.8533 -103.4839 186° South 438 504 35,000  Level Denver Center
10:26AM 41.7172 -103.4853 180° South 438 504 35,000 -780 Level Denver Center
10:27AM 41.5975 -103.4886 181° South 449 517 33,500 -1,500 Descending Denver Center
10:28AM 41.4797 -103.4931 182° South 442 509 32,000 -780 Descending Denver Center
10:29AM 41.3433 -103.4961 181° South 440 506 32,000  Level Denver Center
10:30AM 41.2231 -103.5006 182° South 447 514 32,000  Level Denver Center
10:31AM 41.0839 -103.5031 181° South 449 517 32,000 -120 Level Denver Center
10:32AM 40.9603 -103.5058 181° South 452 520 31,800 -1,020 Descending Denver Center
10:33AM 40.8497 -103.5750 205° Southwest 445 512 29,900 -1,920 Descending Denver Center
10:34AM 40.7472 -103.6633 213° Southwest 441 507 27,900 -1,980 Descending Denver Center
10:35AM 40.6439 -103.7539 214° Southwest 445 512 25,900 -2,040 Descending Denver Center
10:36AM 40.5189 -103.8619 213° Southwest 448 516 23,700 -2,040 Descending Denver Center
10:37AM 40.4200 -103.9525 215° Southwest 442 509 21,700 -2,040 Descending Denver Center
10:38AM 40.3311 -104.0322 214° Southwest 377 434 19,600 -1,980 Descending Denver Center
10:39AM 40.2558 -104.1147 220° Southwest 334 384 17,700 -1,920 Descending Denver Center
10:40AM 40.1872 -104.1881 219° Southwest 320 368 15,700 -1,500 Descending Denver Center
10:41AM 40.1156 -104.2653 219° Southwest 307 353 14,700 -1,020 Descending Denver Center
10:42AM 40.0572 -104.3297 220° Southwest 277 319 13,600 -840 Descending Denver Center
10:43AM 39.9972 -104.3950 220° Southwest 262 302 13,000 -360 Descending Denver Center
10:44AM 39.9400 -104.4561 219° Southwest 266 306 12,900 -840 Descending Denver Center
10:45AM 39.8750 -104.4983 206° Southwest 266 306 11,300 -960 Descending Denver Center
10:46AM 39.7983 -104.5008 181° South 252 290 11,000 -180 Descending Denver Center
10:47AM 39.7311 -104.5028 181° South 243 280 11,000  Level Denver Center
10:49AM 39.6600 -104.5031 180° South 237 273 11,000  Level Denver Center
10:50AM 39.5967 -104.5047 181° South 224 258 11,000 -300 Level Denver Center
10:51AM 39.5308 -104.5050 180° South 236 272 10,400 -840 Descending Denver Center
10:52AM 39.4642 -104.5061 181° South 227 261 9,300 -720 Descending Denver Center
10:53AM 39.4200 -104.5450 214° Southwest 220 253 9,000 -180 Descending Denver Center
10:54AM 39.4236 -104.6281 273° West 236 272 9,000  Level Denver Center
10:55AM 39.4797 -104.6469 345° North 213 245 9,000  Level Denver Center
10:56AM 39.5431 -104.6461 North 212 244 9,000  Level Denver Center
10:57AM 39.6019 -104.6442 North 213 245 9,000 -240 Level Denver Center
10:58AM 39.6572 -104.6431 North 185 213 8,600 -660 Descending Denver Center
10:59AM 39.7083 -104.6431 360° North 184 212 7,700 -900 Descending Denver Center
11:00AM 39.7575 -104.6431 360° North 167 192 6,800 -840 Descending Denver Center
11:01AM 39.7986 -104.6419 North 151 174 6,000 -720 Descending Denver Center
11:02AM 39.8411 -104.6411 North 152 175 5,400 -600 Descending Denver Center